createdAt,value
2023-04-16T00:01:39.018Z,10.50
2023-04-16T00:04:06.947Z,10.40
2023-04-16T00:06:34.706Z,10.40
2023-04-16T00:09:02.186Z,10.40
2023-04-16T00:11:29.745Z,10.30
2023-04-16T00:13:57.271Z,10.30
2023-04-16T00:16:24.654Z,10.30
2023-04-16T00:18:52.083Z,10.30
2023-04-16T00:21:19.497Z,10.20
2023-04-16T00:23:47.173Z,10.20
2023-04-16T00:26:14.533Z,10.20
2023-04-16T00:28:44.618Z,10.10
2023-04-16T00:31:12.063Z,10.10
2023-04-16T00:33:39.562Z,10.10
2023-04-16T00:36:07.417Z,10.00
2023-04-16T00:38:36.010Z,10.00
2023-04-16T00:41:03.553Z,10.00
2023-04-16T00:43:31.723Z,10.00
2023-04-16T00:45:59.552Z,9.90
2023-04-16T00:48:28.284Z,10.00
2023-04-16T00:50:56.181Z,9.90
2023-04-16T00:53:24.370Z,9.90
2023-04-16T00:55:52.146Z,9.90
2023-04-16T00:58:20.413Z,9.90
2023-04-16T01:00:48.455Z,9.80
2023-04-16T01:03:17.365Z,9.80
2023-04-16T01:05:46.068Z,9.80
2023-04-16T01:08:21.549Z,9.80
2023-04-16T01:10:49.076Z,9.70
2023-04-16T01:13:16.700Z,9.70
2023-04-16T01:15:44.490Z,9.70
2023-04-16T01:18:17.143Z,9.70
2023-04-16T01:20:45.543Z,9.70
2023-04-16T01:23:13.244Z,9.70
2023-04-16T01:25:41.681Z,9.70
2023-04-16T01:28:09.368Z,9.60
2023-04-16T01:30:36.964Z,9.60
2023-04-16T01:33:15.561Z,9.60
2023-04-16T01:35:43.053Z,9.60
2023-04-16T01:38:11.263Z,9.60
2023-04-16T01:40:38.951Z,9.60
2023-04-16T01:43:06.670Z,9.60
2023-04-16T01:45:35.241Z,9.60
2023-04-16T01:48:04.160Z,9.50
2023-04-16T01:50:32.126Z,9.50
2023-04-16T01:52:59.733Z,9.50
2023-04-16T01:55:27.391Z,9.50
2023-04-16T01:57:54.920Z,9.50
2023-04-16T02:00:26.612Z,9.50
2023-04-16T02:02:54.223Z,9.40
2023-04-16T02:05:27.238Z,9.50
2023-04-16T02:07:54.782Z,9.40
2023-04-16T02:10:22.352Z,9.40
2023-04-16T02:12:51.053Z,9.40
2023-04-16T02:15:19.339Z,9.40
2023-04-16T02:17:48.709Z,9.40
2023-04-16T02:20:17.630Z,9.40
2023-04-16T02:22:54.024Z,9.40
2023-04-16T02:25:24.269Z,9.40
2023-04-16T02:27:54.437Z,9.30
2023-04-16T02:30:37.243Z,9.40
2023-04-16T02:33:07.715Z,9.30
2023-04-16T02:35:37.209Z,9.40
2023-04-16T02:38:08.036Z,9.30
2023-04-16T02:40:36.828Z,9.30
2023-04-16T02:43:04.606Z,9.30
2023-04-16T02:45:32.365Z,9.30
2023-04-16T02:48:00.672Z,9.30
2023-04-16T02:50:28.102Z,9.30
2023-04-16T02:52:55.774Z,9.30
2023-04-16T02:55:23.441Z,9.30
2023-04-16T02:57:52.789Z,9.30
2023-04-16T03:00:20.522Z,9.30
2023-04-16T03:02:48.194Z,9.30
2023-04-16T03:05:15.877Z,9.30
2023-04-16T03:07:43.265Z,9.30
2023-04-16T03:10:11.976Z,9.30
2023-04-16T03:12:39.700Z,9.40
2023-04-16T03:15:08.009Z,9.40
2023-04-16T03:17:35.649Z,9.30
2023-04-16T03:20:03.214Z,9.30
2023-04-16T03:22:30.736Z,9.30
2023-04-16T03:24:58.125Z,9.30
2023-04-16T03:27:25.612Z,9.40
2023-04-16T03:29:53.452Z,9.40
2023-04-16T03:32:20.874Z,9.40
2023-04-16T03:34:48.355Z,9.40
2023-04-16T03:37:15.781Z,9.40
2023-04-16T03:39:43.227Z,9.40
2023-04-16T03:42:12.101Z,9.40
2023-04-16T03:44:39.783Z,9.40
2023-04-16T03:47:07.395Z,9.40
2023-04-16T03:49:36.104Z,9.40
2023-04-16T03:52:03.711Z,9.50
2023-04-16T03:54:31.239Z,9.50
2023-04-16T03:57:09.674Z,9.40
2023-04-16T03:59:38.320Z,9.40
2023-04-16T04:02:06.120Z,9.40
2023-04-16T04:04:33.580Z,9.50
2023-04-16T04:07:01.182Z,9.50
2023-04-16T04:09:28.715Z,9.40
2023-04-16T04:11:56.317Z,9.50
2023-04-16T04:14:23.904Z,9.50
2023-04-16T04:16:51.330Z,9.50
2023-04-16T04:19:18.757Z,9.50
2023-04-16T04:21:46.229Z,9.50
2023-04-16T04:24:14.249Z,9.50
2023-04-16T04:26:41.734Z,9.50
2023-04-16T04:29:09.293Z,9.50
2023-04-16T04:31:37.008Z,9.50
2023-04-16T04:34:04.604Z,9.50
2023-04-16T04:36:32.263Z,9.50
2023-04-16T04:39:01.469Z,9.50
2023-04-16T04:41:29.150Z,9.50
2023-04-16T04:43:56.562Z,9.50
2023-04-16T04:46:25.425Z,9.60
2023-04-16T04:48:52.947Z,9.60
2023-04-16T04:51:20.372Z,9.60
2023-04-16T04:53:48.027Z,9.60
2023-04-16T04:56:15.833Z,9.70
2023-04-16T04:58:43.360Z,9.70
2023-04-16T05:01:11.166Z,9.60
2023-04-16T05:03:38.806Z,9.70
2023-04-16T05:06:07.545Z,9.70
2023-04-16T05:08:34.903Z,9.70
2023-04-16T05:11:02.528Z,9.70
2023-04-16T05:13:29.936Z,9.70
2023-04-16T05:15:57.512Z,9.70
2023-04-16T05:18:25.018Z,9.70
2023-04-16T05:20:52.474Z,9.70
2023-04-16T05:23:19.857Z,9.70
2023-04-16T05:25:47.265Z,9.80
2023-04-16T05:28:14.648Z,9.80
2023-04-16T05:30:42.059Z,9.80
2023-04-16T05:33:09.532Z,9.80
2023-04-16T05:35:36.947Z,9.90
2023-04-16T05:38:04.507Z,9.90
2023-04-16T05:40:32.455Z,9.90
2023-04-16T05:43:00.032Z,9.90
2023-04-16T05:45:28.242Z,10.00
2023-04-16T05:47:55.979Z,10.00
2023-04-16T05:50:23.651Z,10.00
2023-04-16T05:52:51.217Z,10.00
2023-04-16T05:55:18.842Z,10.10
2023-04-16T05:57:47.080Z,10.10
2023-04-16T06:00:14.977Z,10.20
2023-04-16T06:02:42.760Z,10.20
2023-04-16T06:05:10.596Z,10.20
2023-04-16T06:07:38.039Z,10.20
2023-04-16T06:10:05.957Z,10.30
2023-04-16T06:12:33.416Z,10.30
2023-04-16T06:15:01.618Z,10.40
2023-04-16T06:17:30.376Z,10.40
2023-04-16T06:19:58.479Z,10.40
2023-04-16T06:22:25.973Z,10.40
2023-04-16T06:24:53.732Z,10.50
2023-04-16T06:27:21.233Z,10.50
2023-04-16T06:29:49.282Z,10.60
2023-04-16T06:32:17.455Z,10.60
2023-04-16T06:34:44.865Z,10.70
2023-04-16T06:37:12.215Z,10.70
2023-04-16T06:39:39.702Z,10.70
2023-04-16T06:42:07.324Z,10.80
2023-04-16T06:44:36.060Z,10.80
2023-04-16T06:47:04.562Z,10.90
2023-04-16T06:49:32.174Z,10.90
2023-04-16T06:51:59.716Z,11.00
2023-04-16T06:54:27.140Z,11.10
2023-04-16T06:56:54.558Z,11.20
2023-04-16T06:59:21.934Z,11.20
2023-04-16T07:01:49.555Z,11.30
2023-04-16T07:04:17.247Z,11.30
2023-04-16T07:06:44.852Z,11.40
2023-04-16T07:09:12.570Z,11.50
2023-04-16T07:11:40.773Z,11.50
2023-04-16T07:14:08.314Z,11.60
2023-04-16T07:16:37.823Z,11.70
2023-04-16T07:19:05.588Z,11.80
2023-04-16T07:21:33.226Z,11.80
2023-04-16T07:24:00.977Z,11.90
2023-04-16T07:26:28.536Z,12.00
2023-04-16T07:28:55.967Z,12.10
2023-04-16T07:31:23.414Z,12.20
2023-04-16T07:33:51.067Z,12.30
2023-04-16T07:36:18.538Z,12.30
2023-04-16T07:38:45.944Z,12.40
2023-04-16T07:41:13.749Z,12.50
2023-04-16T07:43:41.140Z,12.60
2023-04-16T07:46:08.546Z,12.70
2023-04-16T07:48:36.039Z,12.80
2023-04-16T07:51:03.590Z,12.90
2023-04-16T07:53:31.123Z,13.00
2023-04-16T07:55:58.598Z,13.10
2023-04-16T07:58:26.126Z,13.20
2023-04-16T08:00:53.560Z,13.30
2023-04-16T08:03:24.354Z,13.40
2023-04-16T08:05:52.145Z,13.50
2023-04-16T08:08:19.620Z,13.60
2023-04-16T08:10:46.994Z,13.70
2023-04-16T08:13:14.462Z,13.90
2023-04-16T08:15:42.537Z,14.00
2023-04-16T08:18:15.424Z,14.10
2023-04-16T08:20:43.065Z,14.20
2023-04-16T08:23:10.715Z,14.30
2023-04-16T08:25:38.044Z,14.40
2023-04-16T08:28:05.673Z,14.50
2023-04-16T08:30:33.385Z,14.60
2023-04-16T08:33:01.130Z,14.70
2023-04-16T08:35:28.723Z,14.80
2023-04-16T08:37:57.873Z,14.90
2023-04-16T08:40:28.550Z,15.00
2023-04-16T08:42:59.381Z,15.20
2023-04-16T08:45:27.768Z,15.20
2023-04-16T08:47:55.207Z,15.30
2023-04-16T08:50:24.689Z,15.30
2023-04-16T08:52:56.564Z,15.40
2023-04-16T08:55:35.980Z,15.50
2023-04-16T08:58:09.370Z,15.60
2023-04-16T09:00:37.970Z,15.70
2023-04-16T09:03:06.455Z,15.70
2023-04-16T09:05:34.932Z,15.90
2023-04-16T09:08:02.733Z,15.90
2023-04-16T09:10:30.374Z,16.00
2023-04-16T09:12:58.576Z,16.10
2023-04-16T09:15:26.690Z,16.10
2023-04-16T09:17:56.475Z,16.10
2023-04-16T09:20:24.639Z,16.20
2023-04-16T09:22:52.320Z,16.20
2023-04-16T09:25:22.608Z,16.30
2023-04-16T09:27:51.193Z,16.30
2023-04-16T09:30:21.869Z,16.40
2023-04-16T09:32:51.018Z,16.50
2023-04-16T09:35:21.844Z,16.50
2023-04-16T09:37:58.545Z,16.60
2023-04-16T09:40:27.471Z,16.70
2023-04-16T09:42:58.365Z,16.70
2023-04-16T09:45:26.215Z,16.80
2023-04-16T09:48:04.379Z,16.90
2023-04-16T09:50:32.359Z,17.00
2023-04-16T09:53:02.648Z,17.10
2023-04-16T09:55:30.297Z,17.20
2023-04-16T09:58:01.813Z,17.30
2023-04-16T10:00:31.632Z,17.30
2023-04-16T10:03:07.066Z,17.40
2023-04-16T10:05:35.179Z,17.50
2023-04-16T10:08:03.060Z,17.50
2023-04-16T10:10:30.637Z,17.60
2023-04-16T10:12:58.514Z,17.70
2023-04-16T10:15:26.212Z,17.80
2023-04-16T10:17:54.683Z,17.90
2023-04-16T10:20:23.920Z,18.00
2023-04-16T10:22:52.425Z,18.10
2023-04-16T10:25:20.221Z,18.20
2023-04-16T10:27:48.411Z,18.30
2023-04-16T10:30:16.736Z,18.40
2023-04-16T10:32:45.799Z,18.40
2023-04-16T10:35:19.033Z,18.50
2023-04-16T10:37:47.442Z,18.60
2023-04-16T10:40:25.946Z,18.70
2023-04-16T10:42:57.756Z,18.80
2023-04-16T10:45:38.451Z,18.80
2023-04-16T10:48:08.627Z,18.90
2023-04-16T10:50:39.733Z,19.00
2023-04-16T10:53:23.344Z,19.00
2023-04-16T10:56:07.213Z,19.10
2023-04-16T10:58:37.550Z,19.10
2023-04-16T11:01:13.344Z,19.20
2023-04-16T11:03:47.087Z,19.20
2023-04-16T11:06:32.824Z,19.30
2023-04-16T11:09:02.793Z,19.30
2023-04-16T11:11:38.476Z,19.30
2023-04-16T11:14:10.971Z,19.40
2023-04-16T11:16:41.204Z,19.40
2023-04-16T11:19:15.723Z,19.40
2023-04-16T11:21:45.301Z,19.50
2023-04-16T11:24:12.730Z,19.50
2023-04-16T11:26:40.199Z,19.60
2023-04-16T11:29:15.560Z,19.70
2023-04-16T11:31:50.020Z,19.70
2023-04-16T11:34:18.740Z,19.80
2023-04-16T11:36:50.876Z,19.80
2023-04-16T11:39:19.142Z,19.90
2023-04-16T11:41:48.126Z,19.90
2023-04-16T11:44:25.412Z,20.00
2023-04-16T11:46:54.292Z,20.10
2023-04-16T11:49:31.452Z,20.10
2023-04-16T11:51:59.834Z,20.20
2023-04-16T11:54:27.230Z,20.20
2023-04-16T11:56:54.701Z,20.20
2023-04-16T11:59:23.496Z,20.30
2023-04-16T12:01:53.143Z,20.30
2023-04-16T12:04:24.466Z,20.30
2023-04-16T12:07:11.970Z,20.30
2023-04-16T12:09:41.731Z,20.40
2023-04-16T12:12:32.937Z,20.40
2023-04-16T12:15:04.081Z,20.50
2023-04-16T12:17:33.732Z,20.50
2023-04-16T12:20:06.029Z,20.50
2023-04-16T12:22:36.765Z,20.50
2023-04-16T12:25:07.138Z,20.50
2023-04-16T12:27:53.694Z,20.50
2023-04-16T12:30:24.282Z,20.50
2023-04-16T12:33:13.272Z,20.60
2023-04-16T12:35:43.548Z,20.70
2023-04-16T12:38:11.896Z,20.70
2023-04-16T12:40:39.387Z,20.80
2023-04-16T12:43:08.890Z,20.90
2023-04-16T12:45:36.787Z,20.90
2023-04-16T12:48:04.473Z,21.00
2023-04-16T12:50:32.471Z,21.10
2023-04-16T12:53:00.284Z,21.10
2023-04-16T12:55:27.777Z,21.20
2023-04-16T12:57:55.222Z,21.30
2023-04-16T13:00:23.097Z,21.40
2023-04-16T13:02:50.759Z,21.40
2023-04-16T13:05:19.294Z,21.50
2023-04-16T13:07:46.958Z,21.60
2023-04-16T13:10:14.506Z,21.60
2023-04-16T13:12:42.112Z,21.70
2023-04-16T13:15:10.701Z,21.80
2023-04-16T13:17:38.423Z,21.80
2023-04-16T13:20:06.392Z,21.90
2023-04-16T13:22:33.961Z,22.00
2023-04-16T13:25:01.552Z,22.10
2023-04-16T13:27:29.007Z,22.20
2023-04-16T13:29:56.466Z,22.30
2023-04-16T13:32:24.099Z,22.30
2023-04-16T13:34:51.626Z,22.40
2023-04-16T13:37:19.046Z,22.60
2023-04-16T13:39:47.289Z,22.70
2023-04-16T13:42:14.708Z,22.90
2023-04-16T13:44:42.665Z,23.00
2023-04-16T13:47:11.197Z,23.20
2023-04-16T13:49:38.697Z,23.30
2023-04-16T13:52:06.159Z,23.30
2023-04-16T13:54:33.517Z,23.40
2023-04-16T13:57:01.098Z,23.50
2023-04-16T13:59:28.936Z,23.60
2023-04-16T14:01:56.366Z,23.60
2023-04-16T14:04:23.996Z,23.50
2023-04-16T14:06:51.545Z,23.50
2023-04-16T14:09:18.905Z,23.40
2023-04-16T14:11:46.359Z,23.40
2023-04-16T14:14:13.972Z,23.30
2023-04-16T14:16:41.622Z,23.30
2023-04-16T14:19:10.605Z,23.20
2023-04-16T14:21:38.393Z,23.00
2023-04-16T14:24:06.574Z,22.90
2023-04-16T14:26:34.346Z,22.80
2023-04-16T14:29:01.708Z,22.70
2023-04-16T14:31:29.113Z,22.60
2023-04-16T14:33:56.588Z,22.50
2023-04-16T14:36:24.209Z,22.50
2023-04-16T14:38:51.687Z,22.40
2023-04-16T14:41:19.146Z,22.40
2023-04-16T14:43:46.607Z,22.30
2023-04-16T14:46:17.587Z,22.40
2023-04-16T14:48:45.978Z,22.60
2023-04-16T14:51:13.399Z,22.70
2023-04-16T14:53:40.982Z,22.90
2023-04-16T14:56:08.397Z,23.00
2023-04-16T14:58:37.835Z,23.30
2023-04-16T15:01:06.571Z,23.50
2023-04-16T15:03:34.156Z,23.70
2023-04-16T15:06:01.888Z,23.90
2023-04-16T15:08:29.340Z,24.00
2023-04-16T15:11:04.511Z,24.10
2023-04-16T15:13:33.995Z,24.10
2023-04-16T15:16:01.865Z,24.10
2023-04-16T15:18:35.425Z,24.00
2023-04-16T15:21:03.912Z,23.80
2023-04-16T15:23:31.623Z,23.80
2023-04-16T15:25:59.697Z,23.60
2023-04-16T15:28:27.281Z,23.50
2023-04-16T15:30:54.983Z,23.30
2023-04-16T15:33:22.557Z,23.00
2023-04-16T15:35:51.658Z,22.80
2023-04-16T15:38:21.213Z,22.60
2023-04-16T15:40:48.601Z,22.50
2023-04-16T15:43:16.648Z,22.30
2023-04-16T15:45:44.055Z,22.10
2023-04-16T15:48:11.609Z,21.90
2023-04-16T15:50:39.195Z,21.80
2023-04-16T15:53:07.144Z,21.70
2023-04-16T15:55:35.790Z,21.60
2023-04-16T15:58:03.228Z,21.50
2023-04-16T16:00:30.591Z,21.40
2023-04-16T16:02:58.634Z,21.30
2023-04-16T16:05:27.188Z,21.20
2023-04-16T16:07:55.059Z,21.10
2023-04-16T16:10:22.825Z,21.00
2023-04-16T16:12:50.329Z,21.00
2023-04-16T16:15:17.847Z,20.90
2023-04-16T16:17:45.691Z,20.70
2023-04-16T16:20:13.346Z,20.60
2023-04-16T16:22:41.872Z,20.60
2023-04-16T16:25:10.291Z,20.50
2023-04-16T16:27:37.812Z,20.40
2023-04-16T16:30:07.346Z,20.40
2023-04-16T16:32:35.003Z,20.30
2023-04-16T16:35:02.531Z,20.30
2023-04-16T16:37:29.936Z,20.30
2023-04-16T16:39:57.378Z,20.30
2023-04-16T16:42:24.874Z,20.30
2023-04-16T16:44:53.420Z,20.30
2023-04-16T16:47:21.975Z,20.30
2023-04-16T16:49:49.460Z,20.30
2023-04-16T16:52:17.204Z,20.30
2023-04-16T16:54:44.748Z,20.30
2023-04-16T16:57:12.670Z,20.30
2023-04-16T16:59:40.401Z,20.30
2023-04-16T17:02:07.873Z,20.30
2023-04-16T17:04:35.359Z,20.40
2023-04-16T17:07:02.835Z,20.50
2023-04-16T17:09:30.668Z,20.60
2023-04-16T17:11:58.051Z,20.70
2023-04-16T17:14:25.544Z,20.90
2023-04-16T17:16:53.373Z,21.00
2023-04-16T17:19:21.038Z,21.00
2023-04-16T17:21:48.439Z,21.00
2023-04-16T17:24:15.922Z,21.00
2023-04-16T17:26:43.994Z,21.10
2023-04-16T17:29:11.949Z,21.00
2023-04-16T17:31:39.430Z,20.90
2023-04-16T17:34:06.863Z,20.90
2023-04-16T17:36:34.302Z,20.80
2023-04-16T17:39:02.449Z,20.60
2023-04-16T17:41:30.403Z,20.60
2023-04-16T17:43:57.884Z,20.40
2023-04-16T17:46:25.785Z,20.30
2023-04-16T17:48:53.300Z,20.20
2023-04-16T17:51:20.803Z,20.10
2023-04-16T17:53:48.435Z,19.90
2023-04-16T17:56:15.892Z,19.80
2023-04-16T17:58:43.358Z,19.70
2023-04-16T18:01:11.160Z,19.60
2023-04-16T18:03:39.873Z,19.50
2023-04-16T18:06:07.525Z,19.40
2023-04-16T18:08:37.043Z,19.30
2023-04-16T18:11:10.544Z,19.20
2023-04-16T18:13:38.504Z,19.10
2023-04-16T18:16:07.531Z,19.00
2023-04-16T18:18:35.086Z,18.90
2023-04-16T18:21:02.478Z,18.80
2023-04-16T18:23:29.849Z,18.70
2023-04-16T18:25:58.641Z,18.60
2023-04-16T18:28:27.146Z,18.50
2023-04-16T18:30:58.760Z,18.40
2023-04-16T18:33:52.749Z,18.40
2023-04-16T18:36:14.054Z,18.30
2023-04-16T18:38:52.950Z,18.20
2023-04-16T18:41:27.265Z,18.20
2023-04-16T18:43:54.781Z,18.10
2023-04-16T18:46:22.303Z,18.10
2023-04-16T18:48:49.847Z,18.00
2023-04-16T18:51:17.344Z,17.90
2023-04-16T18:53:45.802Z,17.90
2023-04-16T18:56:13.862Z,17.90
2023-04-16T18:58:41.376Z,17.80
2023-04-16T19:01:11.247Z,17.80
2023-04-16T19:03:39.265Z,17.70
2023-04-16T19:06:06.898Z,17.70
2023-04-16T19:08:34.498Z,17.60
2023-04-16T19:11:02.435Z,17.60
2023-04-16T19:13:30.593Z,17.60
2023-04-16T19:16:02.041Z,17.60
2023-04-16T19:18:29.551Z,17.50
2023-04-16T19:21:00.925Z,17.50
2023-04-16T19:23:28.835Z,17.50
2023-04-16T19:25:56.903Z,17.40
2023-04-16T19:28:25.032Z,17.40
2023-04-16T19:30:53.578Z,17.40
2023-04-16T19:33:21.187Z,17.30
2023-04-16T19:35:48.597Z,17.30
2023-04-16T19:38:16.080Z,17.30
2023-04-16T19:40:48.932Z,17.20
2023-04-16T19:43:16.351Z,17.10
2023-04-16T19:45:45.004Z,17.10
2023-04-16T19:48:12.885Z,17.10
2023-04-16T19:50:41.585Z,17.00
2023-04-16T19:53:09.431Z,17.00
2023-04-16T19:55:38.875Z,16.90
2023-04-16T19:58:06.565Z,16.90
2023-04-16T20:00:36.431Z,16.90
2023-04-16T20:03:04.929Z,16.80
2023-04-16T20:05:32.357Z,16.80
2023-04-16T20:07:59.769Z,16.70
2023-04-16T20:10:32.341Z,16.60
2023-04-16T20:12:59.982Z,16.60
2023-04-16T20:15:27.432Z,16.60
2023-04-16T20:17:56.242Z,16.50
2023-04-16T20:20:23.823Z,16.50
2023-04-16T20:22:51.345Z,16.40
2023-04-16T20:25:21.515Z,16.30
2023-04-16T20:27:48.972Z,16.30
2023-04-16T20:30:16.441Z,16.20
2023-04-16T20:32:43.978Z,16.20
2023-04-16T20:35:11.755Z,16.20
2023-04-16T20:37:41.796Z,16.10
2023-04-16T20:40:09.968Z,16.10
2023-04-16T20:42:37.379Z,16.10
2023-04-16T20:45:05.177Z,16.10
2023-04-16T20:47:34.710Z,16.00
2023-04-16T20:50:03.008Z,15.90
2023-04-16T20:52:30.720Z,15.90
2023-04-16T20:54:58.234Z,15.90
2023-04-16T20:57:28.062Z,15.90
2023-04-16T20:59:56.361Z,15.80
2023-04-16T21:02:24.458Z,15.80
2023-04-16T21:04:52.319Z,15.80
2023-04-16T21:07:19.881Z,15.80
2023-04-16T21:09:47.297Z,15.70
2023-04-16T21:12:14.730Z,15.70
2023-04-16T21:14:42.219Z,15.70
2023-04-16T21:17:09.718Z,15.70
2023-04-16T21:19:37.131Z,15.60
2023-04-16T21:22:04.502Z,15.60
2023-04-16T21:24:32.256Z,15.60
2023-04-16T21:26:59.675Z,15.50
2023-04-16T21:29:27.375Z,15.50
2023-04-16T21:31:55.581Z,15.50
2023-04-16T21:34:23.194Z,15.50
2023-04-16T21:36:50.718Z,15.50
2023-04-16T21:39:19.849Z,15.40
2023-04-16T21:41:47.651Z,15.50
2023-04-16T21:44:15.457Z,15.40
2023-04-16T21:46:42.851Z,15.40
2023-04-16T21:49:10.510Z,15.40
2023-04-16T21:51:40.070Z,15.50
2023-04-16T21:54:08.226Z,15.40
2023-04-16T21:56:35.778Z,15.40
2023-04-16T21:59:03.340Z,15.40
2023-04-16T22:01:30.861Z,15.40
2023-04-16T22:03:58.388Z,15.40
2023-04-16T22:06:27.146Z,15.40
2023-04-16T22:08:54.737Z,15.40
2023-04-16T22:11:22.599Z,15.40
2023-04-16T22:13:50.185Z,15.40
2023-04-16T22:16:17.957Z,15.40
2023-04-16T22:18:46.312Z,15.40
2023-04-16T22:21:14.022Z,15.40
2023-04-16T22:23:41.558Z,15.40
2023-04-16T22:26:09.172Z,15.40
2023-04-16T22:28:36.738Z,15.40
2023-04-16T22:31:04.213Z,15.40
2023-04-16T22:33:31.613Z,15.40
2023-04-16T22:36:00.220Z,15.40
2023-04-16T22:38:27.689Z,15.40
2023-04-16T22:40:55.342Z,15.40
2023-04-16T22:43:22.942Z,15.40
2023-04-16T22:45:50.378Z,15.40
2023-04-16T22:48:18.637Z,15.30
2023-04-16T22:50:51.028Z,15.30
2023-04-16T22:53:18.511Z,15.30
2023-04-16T22:55:46.015Z,15.30
2023-04-16T22:58:13.429Z,15.30
2023-04-16T23:00:41.281Z,15.30
2023-04-16T23:03:09.111Z,15.30
2023-04-16T23:05:36.655Z,15.30
2023-04-16T23:08:04.383Z,15.30
2023-04-16T23:10:31.963Z,15.30
2023-04-16T23:12:59.523Z,15.20
2023-04-16T23:15:27.386Z,15.20
2023-04-16T23:17:55.398Z,15.20
2023-04-16T23:20:23.039Z,15.20
2023-04-16T23:22:50.753Z,15.20
2023-04-16T23:25:18.829Z,15.20
2023-04-16T23:27:46.503Z,15.20
2023-04-16T23:30:14.464Z,15.20
2023-04-16T23:32:42.096Z,15.20
2023-04-16T23:35:10.051Z,15.20
2023-04-16T23:37:37.965Z,15.10
2023-04-16T23:40:06.622Z,15.20
2023-04-16T23:42:34.147Z,15.20
2023-04-16T23:45:02.558Z,15.20
2023-04-16T23:47:30.017Z,15.10
2023-04-16T23:49:57.624Z,15.10
2023-04-16T23:52:25.332Z,15.10
2023-04-16T23:54:52.869Z,15.10
2023-04-16T23:57:20.507Z,15.10
2023-04-16T23:59:48.125Z,15.10
